Tiempo atmosférico en la estación meteorológica de Barbate, Cádiz (4 m.)



Fecha
DESCASC
Temp. máxima en grados centígrados (hora)
DESCASC
Temp. mínima en grados centígrados (hora)
DESCASC
Temp. media en grados centígrados
DESCASC
Racha de viento máxima en m/sg (hora)
DESCASC
Velocidad máxima media en intervalos de 10 minutos(hora)
DESCASC
Precipitaciones diarias en mm
DESCASC
Precipitaciones de 00:00 a 06:00 en mm
DESCASC
Precipitaciones de 06:00 a 12:00 en mm
DESCASC
Precipitaciones de 12:00 a 18:00 en mm
DESCASC
Precipitaciones de 18:00 a 24:00 en mm
DESCASC
24-09-2020 33.9 (17:10) 19.9 (08:00) 26.9 8.89 (16:20) 5 (16:20) 0 0 0 0 0
23-09-2020 29.5 (17:00) 19.9 (00:00) 24.7 8.89 (14:10) 5.56 (14:40) 0 0 0 0 0
22-09-2020 24.7 (18:50) 16.6 (00:00) 20.7 9.44 (15:50) 8.06 (15:50) 0 0 0 0 0
21-09-2020 29.6 (16:30) 17.7 (00:00) 23.7 10 (16:50) 7.5 (16:20) 0 0 0 0 0
20-09-2020 27.9 (16:50) 16.5 (00:00) 22.2 10.28 (14:00) 7.22 (14:00) 0 0 0 0 0
19-09-2020 24.1 (17:10) 20.7 (00:00) 22.4 10 (01:10) 7.22 (14:10) 0.4 0.4 0 0 0
18-09-2020 24.4 (11:50) 22 (00:00) 23.2 15.28 (00:40) 13.06 (00:40) 0 0 0 0 0
17-09-2020 27.5 (12:30) 22.9 (00:00) 25.2 16.39 (23:50) 13.61 (23:50) 0 0 0 0 0
16-09-2020 26.3 (15:30) 20.2 (00:00) 23.3 9.17 (13:40) 8.06 (13:40) 0 0 0 0 0
15-09-2020 26.3 (13:00) 21.8 (00:00) 24 7.5 (15:40) 6.11 (15:50) 0 0 0 0 0
14-09-2020 31 (16:00) 23.8 (00:00) 27.4 17.22 (02:00) 10.28 (02:00) 0 0 0 0 0
13-09-2020 29.7 (14:50) 24.5 (00:00) 27.1 21.11 (16:30) 13.33 (16:20) 0 0 0 0 0
12-09-2020 30.9 (15:10) 21.9 (00:00) 26.4 18.61 (15:10) 11.39 (23:30) 0 0 0 0 0
11-09-2020 30.9 (16:00) 21.1 (00:00) 26 12.5 (14:10) 9.72 (07:30) 0 0 0 0 0
10-09-2020 27.5 (17:30) 20.2 (00:00) 23.9 12.22 (02:20) 6.94 (01:20) 0 0 0 0 0
09-09-2020 29.7 (17:20) 22.2 (00:00) 26 15.56 (01:10) 9.17 (02:40) 0 0 0 0 0
08-09-2020 28.6 (15:20) 21.5 (00:00) 25.1 20.28 (07:00) 11.11 (12:50) 0 0 0 0 0
07-09-2020 27 (18:50) 20.8 (08:20) 23.9 10 (00:30) 6.11 (00:30) 0 0 0 0 0
06-09-2020 30.4 (16:20) 22.5 (00:00) 26.4 20.56 (00:10) 11.11 (01:50) 0 0 0 0 0
05-09-2020 30.8 (16:00) 22.9 (00:00) 26.8 23.89 (23:10) 11.67 (04:00) 0 0 0 0 0
04-09-2020 29.2 (15:20) 22.9 (00:00) 26.1 22.5 (03:00) 13.89 (03:10) 0 0 0 0 0
03-09-2020 28.7 (15:40) 22.3 (00:00) 25.5 22.5 (12:20) 14.17 (15:50) 0 0 0 0 0
02-09-2020 30.7 (16:40) 15.9 (00:00) 23.3 13.33 (17:40) 9.44 (17:50) 0 0 0 0 0
01-09-2020 26.9 (11:20) 20.3 (00:00) 23.6 12.22 (02:20) 8.06 (16:40) 0 0 0 0 0
31-08-2020 28.7 (16:30) 21.5 (00:00) 25.1 18.33 (10:40) 12.22 (14:10) 0 0 0 0 0
30-08-2020 30.7 (15:20) 15 (00:00) 22.9 12.22 (13:10) 8.61 (13:00) 0 0 0 0 0
29-08-2020 26.2 (16:20) 17.5 (00:00) 21.9 10.83 (17:50) 8.89 (13:00) 0 0 0 0 0
28-08-2020 25 (17:10) 21.1 (00:00) 23.1 10.56 (13:10) 8.33 (13:10) 0 0 0 0 0
27-08-2020 28.9 (20:00) 20.3 (00:00) 24.6 9.17 (16:30) 7.78 (16:30) 0 0 0 0 0
26-08-2020 27.9 (16:00) 19.7 (00:00) 23.8 6.67 (15:40) 5.28 (14:40) 0 0 0 0 0

Gráficas

Temp. máximas Temp. mínimas Temp. medias Precipitaciones Rachas de viento máximas Velocidades máximas media en intervalos de 10 minutos

Datos horarios

Fecha y hora oficial Temperatura (ºC) Velocidad del viento (km/h) Dirección del viento Racha (km/h) Dirección de racha Precipitación (mm) Presión (hPa) Tendencia (hPa) Humedad (%)
2020-09-24 23:00:00 25.5 5 Norte 14 Norte 0 -- -- 53
2020-09-24 22:00:00 26 7 Norte 11 Norte 0 -- -- 53
2020-09-24 21:00:00 27.9 9 Norte 18 Norte 0 -- -- 49
2020-09-24 20:00:00 30.2 10 Norte 23 Norte 0 -- -- 41
2020-09-24 19:00:00 31.9 11 Norte 24 Norte 0 -- -- 33
2020-09-24 18:00:00 33.3 16 Norte 31 Norte 0 -- -- 30
2020-09-24 17:00:00 33.5 13 Norte 32 Norte 0 -- -- 29
2020-09-24 16:00:00 33.6 18 Norte 31 Norte 0 -- -- 31
2020-09-24 15:00:00 33.2 15 Norte 27 Nordeste 0 -- -- 30
2020-09-24 14:00:00 32.1 17 Nordeste 27 Nordeste 0 -- -- 35
2020-09-24 13:00:00 31.1 15 Norte 26 Nordeste 0 -- -- 38
2020-09-24 12:00:00 29.3 10 Norte 17 Norte 0 -- -- 48
2020-09-24 11:00:00 25 8 Nordeste 15 Norte 0 -- -- 63
2020-09-24 10:00:00 22 8 Norte 15 Norte 0 -- -- 74
2020-09-24 09:00:00 20.3 8 Norte 15 Norte 0 -- -- 80
2020-09-24 08:00:00 19.9 8 Nordeste 14 Norte 0 -- -- 82
2020-09-24 07:00:00 20.2 8 Norte 12 Norte 0 -- -- 80
2020-09-24 06:00:00 20.3 5 Norte 14 Nordeste 0 -- -- 78
2020-09-24 05:00:00 20.5 10 Norte 15 Norte 0 -- -- 78
2020-09-24 04:00:00 20.5 7 Norte 14 Norte 0 -- -- 77
2020-09-24 03:00:00 21 8 Norte 12 Norte 0 -- -- 75
2020-09-24 02:00:00 21 8 Norte 12 Norte 0 -- -- 76
2020-09-24 01:00:00 21.4 10 Nordeste 16 Nordeste 0 -- -- 72
2020-09-24 00:00:00 22.3 12 Nordeste 17 Nordeste 0 -- -- 69
2020-09-23 23:00:00 22.4 0 Calma 10 Norte 0 -- -- 69
2020-09-23 22:00:00 23.6 7 Norte 13 Norte 0 -- -- 63
2020-09-23 21:00:00 24.8 10 Norte 21 Noroeste 0 -- -- 54
2020-09-23 20:00:00 26.2 12 Norte 22 Norte 0 -- -- 50
2020-09-23 19:00:00 27.9 10 Norte 23 Noroeste 0 -- -- 45
2020-09-23 18:00:00 28.5 12 Norte 25 Norte 0 -- -- 43
2020-09-23 17:00:00 29.5 15 Noroeste 26 Noroeste 0 -- -- 39
2020-09-23 16:00:00 29.1 15 Noroeste 29 Noroeste 0 -- -- 40
2020-09-23 15:00:00 28 16 Noroeste 32 Noroeste 0 -- -- 47
2020-09-23 14:00:00 27.5 12 Noroeste 24 Oeste 0 -- -- 50
2020-09-23 13:00:00 25.7 12 Oeste 19 Oeste 0 -- -- 61
2020-09-23 12:00:00 25.3 7 Noroeste 14 Noroeste 0 -- -- 63
2020-09-23 11:00:00 23.2 7 Norte 14 Norte 0 -- -- 77
2020-09-23 10:00:00 21.3 6 Noroeste 12 Noroeste 0 -- -- 88
2020-09-23 09:00:00 20.2 2 Norte 10 Sudeste 0 -- -- 94
2020-09-23 08:00:00 20 11 Sur 15 Sur 0 -- -- 94
2020-09-23 07:00:00 20.1 9 Sur 15 Sur 0 -- -- 93
2020-09-23 06:00:00 20.6 0 Calma 11 Sudoeste 0 -- -- 90
2020-09-23 05:00:00 20.5 3 Sur 7 Sudoeste 0 -- -- 92
2020-09-23 04:00:00 20.8 6 Sudoeste 9 Oeste 0 -- -- 90
2020-09-23 03:00:00 20.8 5 Oeste 7 Oeste 0 -- -- 86
2020-09-23 02:00:00 20.9 3 Oeste 7 Oeste 0 -- -- 84
2020-09-23 01:00:00 21.4 3 Nordeste 13 Noroeste 0 -- -- 79
2020-09-23 00:00:00 22.2 5 Noroeste 12 Noroeste 0 -- -- 74
2020-09-22 23:00:00 22.2 6 Noroeste 10 Noroeste 0 -- -- 70
2020-09-22 22:00:00 22.2 0 Calma 15 Norte 0 -- -- 72
2020-09-22 21:00:00 22.9 11 Norte 22 Noroeste 0 -- -- 67
2020-09-22 20:00:00 24 13 Noroeste 17 Noroeste 0 -- -- 57
2020-09-22 19:00:00 24.7 11 Noroeste 20 Oeste 0 -- -- 55
2020-09-22 18:00:00 23.5 17 Oeste 32 Oeste 0 -- -- 73
2020-09-22 17:00:00 23.4 23 Oeste 31 Oeste 0 -- -- 76
2020-09-22 16:00:00 23 27 Oeste 34 Oeste 0 -- -- 78
2020-09-22 15:00:00 23.4 19 Sudoeste 28 Sudoeste 0 -- -- 77
2020-09-22 14:00:00 23.1 14 Sudoeste 15 Sudoeste 0 -- -- 78
2020-09-22 13:00:00 22.5 10 Sudoeste 14 Sudoeste 0 -- -- 80
2020-09-22 12:00:00 21.8 7 Sudoeste 8 Sudoeste 0 -- -- 78
2020-09-22 11:00:00 22.6 3 Sur 8 Norte 0 -- -- 75
2020-09-22 10:00:00 19.1 5 Norte 11 Norte 0 -- -- 84
2020-09-22 09:00:00 17.1 5 Norte 9 Norte 0 -- -- 91
2020-09-22 08:00:00 16.8 4 Norte 8 Norte 0 -- -- 92
2020-09-22 07:00:00 17.8 4 Norte 8 Norte 0 -- -- 90
2020-09-22 06:00:00 17.9 7 Norte 9 Norte 0 -- -- 89
2020-09-22 05:00:00 19 3 Norte 7 Norte 0 -- -- 85
2020-09-22 04:00:00 18.9 4 Norte 7 Norte 0 -- -- 88
2020-09-22 03:00:00 19.3 4 Norte 9 Norte 0 -- -- 87
2020-09-22 02:00:00 20.1 6 Norte 12 Nordeste 0 -- -- 81
2020-09-22 01:00:00 21.1 11 Nordeste 16 Nordeste 0 -- -- 80
2020-09-22 00:00:00 21.5 8 Nordeste 12 Nordeste 0 -- -- 77
2020-09-21 23:00:00 22 7 Nordeste 10 Nordeste 0 -- -- 71
2020-09-21 22:00:00 22.9 4 Este 22 Noroeste 0 -- -- 65
2020-09-21 21:00:00 24 15 Norte 28 Norte 0 -- -- 58
2020-09-21 20:00:00 25.7 18 Noroeste 31 Noroeste 0 -- -- 53
2020-09-21 19:00:00 27.6 22 Noroeste 35 Noroeste 0 -- -- 50
2020-09-21 18:00:00 28.8 23 Noroeste 34 Noroeste 0 -- -- 46
2020-09-21 17:00:00 29.2 24 Noroeste 36 Noroeste 0 -- -- 47
2020-09-21 16:00:00 28.9 21 Oeste 32 Noroeste 0 -- -- 51
2020-09-21 15:00:00 24.3 19 Sudoeste 28 Sudoeste 0 -- -- 77
2020-09-21 14:00:00 23.4 16 Sudoeste 20 Sudoeste 0 -- -- 81
2020-09-21 13:00:00 22.8 16 Sudoeste 19 Sudoeste 0 -- -- 84
2020-09-21 12:00:00 25.3 3 Noroeste 11 Nordeste 0 -- -- 68
2020-09-21 11:00:00 21.6 9 Nordeste 13 Norte 0 -- -- 80
2020-09-21 10:00:00 19.2 9 Nordeste 13 Nordeste 0 -- -- 89
2020-09-21 09:00:00 18.3 6 Nordeste 10 Nordeste 0 -- -- 93
2020-09-21 08:00:00 17.8 3 Norte 6 Norte 0 -- -- 94
2020-09-21 07:00:00 18.5 4 Norte 5 Norte 0 -- -- 92
2020-09-21 06:00:00 18.5 0 Calma 8 Nordeste 0 -- -- 92
2020-09-21 05:00:00 18.4 3 Nordeste 5 Norte 0 -- -- 92
2020-09-21 04:00:00 19 4 Norte 6 Norte 0 -- -- 90
2020-09-21 03:00:00 19.5 0 Calma 8 Norte 0 -- -- 88
2020-09-21 02:00:00 20 5 Norte 10 Norte 0 -- -- 87
2020-09-21 01:00:00 20.4 8 Norte 14 Nordeste 0 -- -- 85
2020-09-21 00:00:00 20.9 7 Norte 14 Norte 0 -- -- 84
2020-09-20 23:00:00 21.3 7 Nordeste 27 Noroeste 0 -- -- 80
2020-09-20 22:00:00 21.8 14 Norte 25 Norte 0 -- -- 74
2020-09-20 21:00:00 22.7 14 Noroeste 24 Noroeste 0 -- -- 64
2020-09-20 20:00:00 24 14 Noroeste 25 Noroeste 0 -- -- 62
2020-09-20 19:00:00 25.9 15 Noroeste 31 Noroeste 0 -- -- 57
2020-09-20 18:00:00 26.8 18 Noroeste 33 Noroeste 0 -- -- 56
2020-09-20 17:00:00 27.9 15 Noroeste 33 Noroeste 0 -- -- 54
2020-09-20 16:00:00 27 22 Noroeste 31 Noroeste 0 -- -- 58
2020-09-20 15:00:00 27.2 19 Noroeste 31 Noroeste 0 -- -- 56
2020-09-20 14:00:00 24 26 Oeste 37 Oeste 0 -- -- 72
2020-09-20 13:00:00 23.4 14 Sudoeste 21 Sudoeste 0 -- -- 79
2020-09-20 12:00:00 22.8 6 Norte 13 Norte 0 -- -- 74
2020-09-20 11:00:00 19.9 6 Norte 11 Norte 0 -- -- 91
2020-09-20 10:00:00 18.1 6 Norte 11 Norte 0 -- -- 95
2020-09-20 09:00:00 16.5 7 Norte 11 Norte 0 -- -- 98
2020-09-20 08:00:00 16.7 6 Norte 9 Norte 0 -- -- 97
2020-09-20 07:00:00 17 6 Norte 9 Nordeste 0 -- -- 96
2020-09-20 06:00:00 17.6 4 Norte 6 Nordeste 0 -- -- 97
2020-09-20 05:00:00 17.6 5 Norte 9 Nordeste 0 -- -- 97
2020-09-20 04:00:00 17.8 5 Nordeste 7 Norte 0 -- -- 94
2020-09-20 03:00:00 18.2 -- -- -- -- 0 -- -- 95
2020-09-20 02:00:00 18.6 5 Norte 6 Norte 0 -- -- 92
2020-09-20 01:00:00 19.5 5 Nordeste 6 Nordeste 0 -- -- 92
2020-09-20 00:00:00 20.7 5 Noroeste 12 Noroeste 0 -- -- 84
2020-09-19 23:00:00 21 10 Noroeste 15 Oeste 0 -- -- 84
2020-09-19 22:00:00 21 5 Oeste 11 Oeste 0 -- -- 85
2020-09-19 21:00:00 21.5 8 Oeste 18 Noroeste 0 -- -- 82
2020-09-19 20:00:00 22.7 14 Oeste 23 Oeste 0 -- -- 76
2020-09-19 19:00:00 23.4 17 Oeste 21 Oeste 0 -- -- 78
2020-09-19 18:00:00 23.9 18 Sudoeste 23 Sudoeste 0 -- -- 81
2020-09-19 17:00:00 24 19 Sudoeste 27 Sudoeste 0 -- -- 82
2020-09-19 16:00:00 23.9 21 Sudoeste 30 Sudoeste 0 -- -- 83
2020-09-19 15:00:00 23.7 26 Sudoeste 31 Sudoeste 0 -- -- 83
2020-09-19 14:00:00 23.5 24 Sudoeste 29 Sudoeste 0 -- -- 84
2020-09-19 13:00:00 23.5 20 Sudoeste 26 Sur 0 -- -- 85
2020-09-19 12:00:00 22.6 21 Sudoeste 26 Sudoeste 0 -- -- 89
2020-09-19 11:00:00 22.2 22 Sudoeste 26 Sudoeste 0 -- -- 89
2020-09-19 10:00:00 21.5 20 Sudoeste 26 Sudoeste 0 -- -- 92
2020-09-19 09:00:00 21.2 21 Sudoeste 27 Sur 0 -- -- 94
2020-09-19 08:00:00 21.1 23 Sudoeste 27 Sur 0 -- -- 94
2020-09-19 07:00:00 21.4 20 Sur 25 Sur 0 -- -- 94
2020-09-19 06:00:00 21.7 16 Sudoeste 24 Sudoeste 0 -- -- 87
2020-09-19 05:00:00 21.6 18 Sudoeste 24 Sudoeste 0 -- -- 89
2020-09-19 04:00:00 21.5 22 Sudoeste 26 Sudoeste 0 -- -- 86
2020-09-19 03:00:00 21.6 14 Sudoeste 31 Sudoeste 0 -- -- 90
2020-09-19 02:00:00 21.6 23 Sudoeste 36 Sudoeste 0.4 -- -- 88
2020-09-19 01:00:00 21.9 24 Sudoeste 28 Sudoeste 0 -- -- 90
2020-09-19 00:00:00 22 20 Sudoeste 25 Sudoeste 0 -- -- 89
2020-09-18 23:00:00 22.1 22 Sudoeste 28 Sudoeste 0 -- -- 87
2020-09-18 22:00:00 22.2 21 Sudoeste 28 Sudoeste 0 -- -- 88
2020-09-18 21:00:00 22.1 24 Sudoeste 31 Sudoeste 0 -- -- 86
2020-09-18 20:00:00 22.6 26 Sudoeste 39 Sudoeste 0 -- -- 90
2020-09-18 19:00:00 23.3 31 Sudoeste 36 Sudoeste 0 -- -- 85
2020-09-18 18:00:00 23.8 30 Sudoeste 39 Sudoeste 0 -- -- 85
2020-09-18 17:00:00 24.2 31 Sudoeste 45 Sudoeste 0 -- -- 83
2020-09-18 16:00:00 24 31 Sudoeste 39 Sudoeste 0 -- -- 83
2020-09-18 15:00:00 24.1 34 Sudoeste 43 Sudoeste 0 -- -- 80
2020-09-18 14:00:00 24.3 31 Sudoeste 40 Sur 0 -- -- 80
2020-09-18 13:00:00 24 33 Sur 40 Sur 0 -- -- 79
2020-09-18 12:00:00 24.3 30 Sur 38 Sudeste 0 -- -- 76
2020-09-18 11:00:00 23.8 35 Sur 44 Sur 0 -- -- 81
2020-09-18 10:00:00 23.8 25 Sur 35 Sudeste 0 -- -- 77
2020-09-18 09:00:00 22.6 19 Sudeste 30 Sudeste 0 -- -- 79
2020-09-18 08:00:00 22.3 12 Sudeste 25 Sudeste 0 -- -- 78
2020-09-18 07:00:00 22.1 10 Sudeste 15 Sudeste 0 -- -- 81
2020-09-18 06:00:00 22.6 3 Este 26 Sudeste 0 -- -- 74
2020-09-18 05:00:00 22.3 20 Sur 28 Sur 0 -- -- 81
2020-09-18 04:00:00 22.1 23 Sur 41 Sur 0 -- -- 86
2020-09-18 03:00:00 22.2 35 Sur 50 Sur 0 -- -- 87
2020-09-18 02:00:00 22.3 42 Sur 54 Sur 0 -- -- 86
2020-09-18 01:00:00 22.6 44 Sur 55 Sur 0 -- -- 86
2020-09-18 00:00:00 23.2 44 Sur 59 Sur 0 -- -- 81
2020-09-17 23:00:00 23.6 37 Sur 48 Sur 0 -- -- 78
2020-09-17 22:00:00 23.3 32 Sur 36 Sur 0 -- -- 82
2020-09-17 21:00:00 23.2 24 Sur 37 Sur 0 -- -- 83
2020-09-17 20:00:00 23 15 Sudoeste 37 Sur 0 -- -- 85
2020-09-17 19:00:00 24.3 27 Sur 44 Sudeste 0 -- -- 78
2020-09-17 18:00:00 25.1 23 Sur 32 Sudeste 0 -- -- 79
2020-09-17 17:00:00 25.2 17 Sudeste 21 Sudeste 0 -- -- 84
2020-09-17 16:00:00 26 10 Sur 18 Sur 0 -- -- 79
2020-09-17 15:00:00 27 14 Sur 24 Sudeste 0 -- -- 72
2020-09-17 14:00:00 26.4 20 Sur 25 Sur 0 -- -- 71
2020-09-17 13:00:00 27.1 17 Sur 27 Sudeste 0 -- -- 68
2020-09-17 12:00:00 27.1 21 Sur 30 Sur 0 -- -- 64
2020-09-17 11:00:00 26.7 19 Sudeste 27 Sur 0 -- -- 66
2020-09-17 10:00:00 25 19 Sudeste 28 Sudeste 0 -- -- 72
2020-09-17 09:00:00 24.6 23 Sudeste 32 Sudeste 0 -- -- 72
2020-09-17 08:00:00 24.2 22 Sur 32 Sur 0 -- -- 74
2020-09-17 07:00:00 24.3 23 Sur 33 Sudeste 0 -- -- 72
2020-09-17 06:00:00 24.1 20 Sur 28 Sudeste 0 -- -- 78
2020-09-17 05:00:00 23.2 13 Sur 19 Sur 0 -- -- 87
2020-09-17 04:00:00 23.3 17 Sudeste 25 Sudeste 0 -- -- 83
2020-09-17 03:00:00 23.5 15 Sur 30 Sudeste 0 -- -- 82
2020-09-17 02:00:00 23.6 24 Sur 31 Sur 0 -- -- 81
2020-09-17 01:00:00 23.3 3 Sur 17 Noroeste 0 -- -- 81
2020-09-17 00:00:00 23.4 10 Norte 20 Noroeste 0 -- -- 82
2020-09-16 23:00:00 24.3 12 Norte 23 Norte 0 -- -- 72
2020-09-16 22:00:00 24.8 8 Norte 24 Sudeste 0 -- -- 69
2020-09-16 21:00:00 24.2 4 Sudoeste 12 Sur 0 -- -- 80
2020-09-16 20:00:00 24.1 10 Sudeste 24 Sur 0 -- -- 82
2020-09-16 19:00:00 24.4 22 Sur 27 Sudeste 0 -- -- 82
2020-09-16 18:00:00 24.7 24 Sur 31 Sur 0 -- -- 82
2020-09-16 17:00:00 25.8 21 Sur 29 Sur 0 -- -- 77
2020-09-16 16:00:00 25.8 22 Sur 29 Sur 0 -- -- 76
2020-09-16 15:00:00 26.2 24 Sur 31 Sudeste 0 -- -- 74
2020-09-16 14:00:00 25.4 25 Sur 33 Sur 0 -- -- 78
2020-09-16 13:00:00 25.6 26 Sur 31 Sur 0 -- -- 77
2020-09-16 12:00:00 25 26 Sur 30 Sur 0 -- -- 82
2020-09-16 11:00:00 25.8 7 Sur 12 Sur 0 -- -- 76
2020-09-16 10:00:00 23 3 Norte 6 Norte 0 -- -- 85
2020-09-16 09:00:00 20.6 5 Norte 10 Nordeste 0 -- -- 92
2020-09-16 08:00:00 20.3 5 Norte 12 Norte 0 -- -- 93
2020-09-16 07:00:00 20.4 6 Norte 12 Norte 0 -- -- 92
2020-09-16 06:00:00 20.4 6 Norte 12 Norte 0 -- -- 91
2020-09-16 05:00:00 20.6 6 Norte 9 Norte 0 -- -- 91
2020-09-16 04:00:00 21 5 Norte 8 Norte 0 -- -- 89
2020-09-16 03:00:00 20.8 6 Norte 15 Norte 0 -- -- 89
2020-09-16 02:00:00 21.7 6 Norte 14 Norte 0 -- -- 86
2020-09-16 01:00:00 21.7 5 Norte 12 Nordeste 0 -- -- 84
2020-09-16 00:00:00 22.4 6 Norte 12 Norte 0 -- -- 82
2020-09-15 23:00:00 22.7 8 Norte 13 Norte 0 -- -- 80
2020-09-15 22:00:00 23.4 8 Norte 10 Norte 0 -- -- 78
2020-09-15 21:00:00 24.1 5 Oeste 11 Oeste 0 -- -- 79
2020-09-15 20:00:00 24.7 10 Oeste 21 Oeste 0 -- -- 80
2020-09-15 19:00:00 25.7 13 Sudoeste 20 Sudoeste 0 -- -- 76
2020-09-15 18:00:00 25.7 18 Oeste 23 Oeste 0 -- -- 76
2020-09-15 17:00:00 26 17 Oeste 21 Oeste 0 -- -- 75
2020-09-15 16:00:00 25.6 20 Oeste 27 Oeste 0 -- -- 77
2020-09-15 15:00:00 25.5 18 Oeste 22 Oeste 0 -- -- 77
2020-09-15 14:00:00 25.5 17 Oeste 22 Oeste 0 -- -- 76
2020-09-15 13:00:00 26.3 13 Sudoeste 15 Sur 0 -- -- 73
2020-09-15 12:00:00 25.9 13 Sudoeste 14 Sudoeste 0 -- -- 73
2020-09-15 11:00:00 25.6 5 Norte 11 Norte 0 -- -- 70
2020-09-15 10:00:00 23 6 Norte 10 Nordeste 0 -- -- 81
2020-09-15 09:00:00 22.1 5 Norte 12 Noroeste 0 -- -- 85
2020-09-15 08:00:00 21.8 8 Norte 12 Noroeste 0 -- -- 86
2020-09-15 07:00:00 21.9 5 Norte 9 Norte 0 -- -- 88
2020-09-15 06:00:00 22.2 6 Nordeste 10 Norte 0 -- -- 86
2020-09-15 05:00:00 22.4 6 Norte 11 Norte 0 -- -- 86
2020-09-15 04:00:00 22.5 4 Norte 13 Norte 0 -- -- 86
2020-09-15 03:00:00 22.7 6 Noroeste 11 Noroeste 0 -- -- 86
2020-09-15 02:00:00 22.9 4 Noroeste 8 Norte 0 -- -- 83
2020-09-15 01:00:00 23.9 2 Norte 21 Nordeste 0 -- -- 79
2020-09-15 00:00:00 24.1 12 Este 20 Este 0 -- -- 78
2020-09-14 23:00:00 24.3 5 Sudeste 23 Este 0 -- -- 78
2020-09-14 22:00:00 24.7 12 Sudeste 28 Este 0 -- -- 77
2020-09-14 21:00:00 25.1 13 Sudeste 28 Sudeste 0 -- -- 74
2020-09-14 20:00:00 25.6 20 Sur 28 Sudeste 0 -- -- 77
2020-09-14 19:00:00 28.3 21 Este 40 Este 0 -- -- 61
2020-09-14 18:00:00 29.4 23 Este 41 Este 0 -- -- 58
2020-09-14 17:00:00 30.1 21 Este 36 Sudeste 0 -- -- 56
2020-09-14 16:00:00 31 20 Este 36 Este 0 -- -- 53
2020-09-14 15:00:00 30.4 22 Este 43 Este 0 -- -- 55
2020-09-14 14:00:00 29.4 27 Este 46 Este 0 -- -- 58
2020-09-14 13:00:00 27.2 27 Este 46 Este 0 -- -- 65
2020-09-14 12:00:00 27.8 27 Sudeste 41 Sudeste 0 -- -- 63
2020-09-14 11:00:00 26.5 19 Sudeste 34 Este 0 -- -- 68
2020-09-14 10:00:00 25.7 22 Este 39 Este 0 -- -- 69
2020-09-14 09:00:00 24.9 21 Sudeste 45 Sudeste 0 -- -- 72
2020-09-14 08:00:00 24.4 27 Sudeste 46 Sudeste 0 -- -- 74
2020-09-14 07:00:00 24.5 19 Sudeste 45 Sudeste 0 -- -- 73
2020-09-14 06:00:00 24.4 29 Sudeste 44 Sudeste 0 -- -- 73
2020-09-14 05:00:00 24.7 10 Este 21 Este 0 -- -- 69
2020-09-14 04:00:00 25.1 5 Este 21 Sudeste 0 -- -- 64
2020-09-14 03:00:00 25.3 11 Sudeste 55 Sudeste 0 -- -- 61
2020-09-14 02:00:00 25 37 Este 62 Sudeste 0 -- -- 66
2020-09-14 01:00:00 24.8 35 Sudeste 58 Sudeste 0 -- -- 68
2020-09-14 00:00:00 25.4 15 Este 57 Sudeste 0 -- -- 62
2020-09-13 23:00:00 25.9 39 Sudeste 60 Sudeste 0 -- -- 55
2020-09-13 22:00:00 26.2 31 Sudeste 48 Sudeste 0 -- -- 50
2020-09-13 21:00:00 25.8 23 Sudeste 50 Este 0 -- -- 55
2020-09-13 20:00:00 26.7 31 Este 51 Este 0 -- -- 54
2020-09-13 19:00:00 28.1 31 Este 53 Este 0 -- -- 52
2020-09-13 18:00:00 29.3 30 Sudeste 69 Sudeste 0 -- -- 47
2020-09-13 17:00:00 29.6 43 Sudeste 76 Sudeste 0 -- -- 49
2020-09-13 16:00:00 29.3 48 Sudeste 71 Sudeste 0 -- -- 51
2020-09-13 15:00:00 29.7 35 Sudeste 53 Sudeste 0 -- -- 52
2020-09-13 14:00:00 28.7 36 Sudeste 64 Sudeste 0 -- -- 55
2020-09-13 13:00:00 27.8 42 Sudeste 62 Este 0 -- -- 58
2020-09-13 12:00:00 28.2 33 Este 53 Este 0 -- -- 57
2020-09-13 11:00:00 27 28 Sudeste 55 Sudeste 0 -- -- 58
2020-09-13 10:00:00 25.4 36 Sudeste 57 Sudeste 0 -- -- 64
2020-09-13 09:00:00 24.9 31 Sudeste 48 Sudeste 0 -- -- 66
2020-09-13 08:00:00 24.9 27 Este 46 Este 0 -- -- 65
2020-09-13 07:00:00 24.8 24 Este 42 Sudeste 0 -- -- 66
2020-09-13 06:00:00 24.7 21 Este 44 Sudeste 0 -- -- 66
2020-09-13 05:00:00 24.7 25 Sudeste 48 Sudeste 0 -- -- 68
2020-09-13 04:00:00 24.9 32 Sudeste 64 Sudeste 0 -- -- 65
2020-09-13 03:00:00 25.2 37 Sudeste 67 Sudeste 0 -- -- 63
2020-09-13 02:00:00 25.5 45 Este 72 Este 0 -- -- 63
2020-09-13 01:00:00 25.5 40 Este 61 Este 0 -- -- 61
2020-09-13 00:00:00 25.6 35 Este 63 Sudeste 0 -- -- 62
2020-09-12 23:00:00 25.4 34 Este 53 Sudeste 0 -- -- 62
2020-09-12 22:00:00 25.3 31 Este 58 Este 0 -- -- 64
2020-09-12 21:00:00 25.8 32 Este 63 Este 0 -- -- 58
2020-09-12 20:00:00 26.8 31 Este 53 Sudeste 0 -- -- 50
2020-09-12 19:00:00 27.3 22 Este 46 Este 0 -- -- 51
2020-09-12 18:00:00 28.1 25 Este 50 Este 0 -- -- 50
2020-09-12 17:00:00 29.9 26 Este 59 Este 0 -- -- 43
2020-09-12 16:00:00 29.8 34 Sudeste 67 Sudeste 0 -- -- 42
2020-09-12 15:00:00 30.6 36 Este 60 Sudeste 0 -- -- 42
2020-09-12 14:00:00 30.2 36 Sudeste 58 Este 0 -- -- 44
2020-09-12 13:00:00 30.2 26 Sudeste 45 Sudeste 0 -- -- 44
2020-09-12 12:00:00 28.7 22 Este 39 Sudeste 0 -- -- 50
2020-09-12 11:00:00 27.7 22 Este 35 Este 0 -- -- 55
2020-09-12 10:00:00 25.3 18 Este 37 Este 0 -- -- 63
2020-09-12 09:00:00 24 15 Este 35 Este 0 -- -- 68
2020-09-12 08:00:00 22.7 13 Nordeste 21 Este 0 -- -- 68
2020-09-12 07:00:00 22.5 9 Nordeste 16 Nordeste 0 -- -- 61
2020-09-12 06:00:00 22.6 8 Nordeste 19 Nordeste 0 -- -- 58
2020-09-12 05:00:00 23 9 Nordeste 18 Nordeste 0 -- -- 54
2020-09-12 04:00:00 22.3 6 Nordeste 20 Nordeste 0 -- -- 63
2020-09-12 03:00:00 23.1 10 Nordeste 31 Norte 0 -- -- 61
2020-09-12 02:00:00 24.2 14 Norte 31 Norte 0 -- -- 56
2020-09-12 01:00:00 24.5 14 Norte 30 Norte 0 -- -- 53
2020-09-12 00:00:00 25.1 17 Norte 29 Norte 0 -- -- 49
2020-09-11 23:00:00 25 8 Norte 25 Nordeste 0 -- -- 51
2020-09-11 22:00:00 25.2 8 Nordeste 20 Nordeste 0 -- -- 49
2020-09-11 21:00:00 25.9 10 Nordeste 19 Este 0 -- -- 48
2020-09-11 20:00:00 27.2 6 Nordeste 25 Este 0 -- -- 45
2020-09-11 19:00:00 28.9 16 Este 36 Este 0 -- -- 41
2020-09-11 18:00:00 30.5 22 Este 43 Sudeste 0 -- -- 38
2020-09-11 17:00:00 30.7 22 Este 40 Este 0 -- -- 40
2020-09-11 16:00:00 30.9 21 Este 40 Este 0 -- -- 39
2020-09-11 15:00:00 29.4 22 Este 45 Este 0 -- -- 44
2020-09-11 14:00:00 29.9 25 Este 45 Sudeste 0 -- -- 42
2020-09-11 13:00:00 29.1 26 Este 41 Este 0 -- -- 44
2020-09-11 12:00:00 28.2 21 Este 30 Este 0 -- -- 48
2020-09-11 11:00:00 26 19 Nordeste 36 Nordeste 0 -- -- 56
2020-09-11 10:00:00 24.5 23 Nordeste 45 Este 0 -- -- 63
2020-09-11 09:00:00 23.1 21 Nordeste 41 Nordeste 0 -- -- 66
2020-09-11 08:00:00 22.6 21 Este 44 Este 0 -- -- 64
2020-09-11 07:00:00 22.2 24 Este 36 Este 0 -- -- 71
2020-09-11 06:00:00 21.1 6 Nordeste 22 Norte 0 -- -- 78
2020-09-11 05:00:00 21.5 17 Nordeste 28 Nordeste 0 -- -- 78
2020-09-11 04:00:00 21.5 13 Norte 24 Norte 0 -- -- 78
2020-09-11 03:00:00 22 16 Nordeste 24 Nordeste 0 -- -- 71
2020-09-11 02:00:00 21.4 9 Noroeste 14 Noroeste 0 -- -- 66
2020-09-11 01:00:00 21.9 8 Norte 13 Norte 0 -- -- 62
2020-09-11 00:00:00 22.1 5 Norte 11 Norte 0 -- -- 65
2020-09-10 23:00:00 22.3 8 Nordeste 10 Nordeste 0 -- -- 62
2020-09-10 22:00:00 22.7 5 Sudeste 10 Sudeste 0 -- -- 82
2020-09-10 21:00:00 23.5 4 Sudeste 15 Oeste 0 -- -- 80
2020-09-10 20:00:00 24.3 11 Oeste 19 Oeste 0 -- -- 78
2020-09-10 19:00:00 26 13 Oeste 19 Oeste 0 -- -- 66
2020-09-10 18:00:00 27.4 10 Oeste 20 Sur 0 -- -- 58
2020-09-10 17:00:00 27 16 Sur 24 Sur 0 -- -- 64
2020-09-10 16:00:00 26.4 15 Sur 27 Sur 0 -- -- 71
2020-09-10 15:00:00 25.8 21 Sur 27 Sur 0 -- -- 72
2020-09-10 14:00:00 25.7 18 Sur 23 Sur 0 -- -- 71
2020-09-10 13:00:00 26.1 12 Sur 17 Sur 0 -- -- 70
2020-09-10 12:00:00 25.4 8 Sudoeste 15 Oeste 0 -- -- 66
2020-09-10 11:00:00 25.8 10 Sudoeste 22 Este 0 -- -- 50
2020-09-10 10:00:00 24 11 Nordeste 25 Nordeste 0 -- -- 52
2020-09-10 09:00:00 21.4 19 Nordeste 27 Este 0 -- -- 64
2020-09-10 08:00:00 20.3 7 Nordeste 15 Nordeste 0 -- -- 69
2020-09-10 07:00:00 20.4 8 Norte 18 Nordeste 0 -- -- 65
2020-09-10 06:00:00 20.8 9 Nordeste 22 Nordeste 0 -- -- 75
2020-09-10 05:00:00 21 8 Nordeste 25 Este 0 -- -- 74
2020-09-10 04:00:00 21.8 12 Norte 42 Este 0 -- -- 71
2020-09-10 03:00:00 22.8 13 Este 44 Nordeste 0 -- -- 65
2020-09-10 02:00:00 22.1 18 Nordeste 32 Nordeste 0 -- -- 72
2020-09-10 01:00:00 22.4 21 Nordeste 40 Este 0 -- -- 69
2020-09-10 00:00:00 22.3 4 Norte 17 Nordeste 0 -- -- 72
2020-09-09 23:00:00 22.3 9 Nordeste 16 Nordeste 0 -- -- 68
2020-09-09 22:00:00 23.3 4 Norte 21 Nordeste 0 -- -- 61
2020-09-09 21:00:00 24.7 13 Nordeste 35 Nordeste 0 -- -- 51
2020-09-09 20:00:00 27.3 14 Este 26 Este 0 -- -- 46
2020-09-09 19:00:00 29 15 Sudeste 31 Este 0 -- -- 43
2020-09-09 18:00:00 29.3 19 Este 31 Este 0 -- -- 40
2020-09-09 17:00:00 29.4 24 Este 39 Este 0 -- -- 43
2020-09-09 16:00:00 29.5 23 Este 45 Este 0 -- -- 47
2020-09-09 15:00:00 29.1 27 Este 41 Este 0 -- -- 46
2020-09-09 14:00:00 29.2 23 Este 41 Este 0 -- -- 47
2020-09-09 13:00:00 28.2 26 Este 44 Este 0 -- -- 52
2020-09-09 12:00:00 27 28 Este 55 Este 0 -- -- 56
2020-09-09 11:00:00 25.8 27 Este 49 Este 0 -- -- 60
2020-09-09 10:00:00 24.3 15 Sudeste 35 Sudeste 0 -- -- 68
2020-09-09 09:00:00 22.8 12 Este 31 Este 0 -- -- 75
2020-09-09 08:00:00 22.3 14 Este 43 Sudeste 0 -- -- 76
2020-09-09 07:00:00 22.3 19 Este 44 Este 0 -- -- 75
2020-09-09 06:00:00 22.3 15 Este 37 Este 0 -- -- 74
2020-09-09 05:00:00 22.5 21 Este 38 Este 0 -- -- 74
2020-09-09 04:00:00 22.7 24 Este 50 Este 0 -- -- 75
2020-09-09 03:00:00 22.8 29 Este 51 Sudeste 0 -- -- 74
2020-09-09 02:00:00 22.9 27 Este 56 Este 0 -- -- 73
2020-09-09 01:00:00 23 32 Este 54 Este 0 -- -- 72
2020-09-09 00:00:00 23.1 30 Este 50 Sudeste 0 -- -- 73
2020-09-08 23:00:00 23.4 27 Este 49 Sudeste 0 -- -- 74
2020-09-08 22:00:00 23.5 27 Este 48 Este 0 -- -- 75
2020-09-08 21:00:00 24 30 Este 55 Sudeste 0 -- -- 72
2020-09-08 20:00:00 24.8 30 Este 52 Este 0 -- -- 68
2020-09-08 19:00:00 25.8 33 Este 59 Este 0 -- -- 67
2020-09-08 18:00:00 26.5 38 Este 61 Este 0 -- -- 65
2020-09-08 17:00:00 27.8 36 Este 63 Este 0 -- -- 61
2020-09-08 16:00:00 28.3 35 Sudeste 60 Sudeste 0 -- -- 61
2020-09-08 15:00:00 28.2 34 Este 61 Este 0 -- -- 61
2020-09-08 14:00:00 28.4 37 Este 60 Sudeste 0 -- -- 58
2020-09-08 13:00:00 27.8 38 Este 70 Este 0 -- -- 59
2020-09-08 12:00:00 27.1 39 Este 65 Este 0 -- -- 64
2020-09-08 11:00:00 26.2 36 Este 63 Sudeste 0 -- -- 67
2020-09-08 10:00:00 25.2 35 Sudeste 71 Este 0 -- -- 70
2020-09-08 09:00:00 24.3 29 Sudeste 59 Este 0 -- -- 75
2020-09-08 08:00:00 23.5 33 Sudeste 62 Este 0 -- -- 77
2020-09-08 07:00:00 23.7 27 Sudeste 73 Este 0 -- -- 77
2020-09-08 06:00:00 23.7 31 Este 70 Este 0 -- -- 76
2020-09-08 05:00:00 23.6 27 Este 54 Este 0 -- -- 75
2020-09-08 04:00:00 23.9 32 Este 56 Este 0 -- -- 72
2020-09-08 03:00:00 24.3 19 Este 51 Sudeste 0 -- -- 72
2020-09-08 02:00:00 24.2 21 Este 39 Este 0 -- -- 77
2020-09-08 01:00:00 21.6 7 Norte 21 Sudeste 0 -- -- 86
2020-09-08 00:00:00 22.2 15 Sudeste 21 Sudeste 0 -- -- 86
2020-09-07 23:00:00 23.5 7 Nordeste 13 Norte 0 -- -- 66
2020-09-07 22:00:00 24.9 8 Nordeste 15 Oeste 0 -- -- 60
2020-09-07 21:00:00 25.5 10 Oeste 14 Norte 0 -- -- 57
2020-09-07 20:00:00 27 3 Oeste 15 Oeste 0 -- -- 65
2020-09-07 19:00:00 26.6 12 Oeste 19 Oeste 0 -- -- 65
2020-09-07 18:00:00 25.8 16 Oeste 27 Sudoeste 0 -- -- 69
2020-09-07 17:00:00 25 15 Sudoeste 22 Sudoeste 0 -- -- 74
2020-09-07 16:00:00 24.6 15 Sudoeste 20 Sudoeste 0 -- -- 77
2020-09-07 15:00:00 25.3 14 Sudoeste 18 Sudoeste 0 -- -- 72
2020-09-07 14:00:00 25 13 Sudoeste 20 Oeste 0 -- -- 73
2020-09-07 13:00:00 26 11 Sur 15 Sur 0 -- -- 71
2020-09-07 12:00:00 25.7 8 Sur 12 Sur 0 -- -- 71
2020-09-07 11:00:00 24.7 9 Sur 11 Sur 0 -- -- 73
2020-09-07 10:00:00 23.5 4 Oeste 8 Oeste 0 -- -- 72
2020-09-07 09:00:00 21.6 6 Noroeste 10 Oeste 0 -- -- 78
2020-09-07 08:00:00 21.3 5 Oeste 11 Oeste 0 -- -- 78
2020-09-07 07:00:00 21.6 5 Noroeste 14 Sudoeste 0 -- -- 78
2020-09-07 06:00:00 21.7 4 Norte 22 Este 0 -- -- 78
2020-09-07 05:00:00 22 15 Nordeste 23 Nordeste 0 -- -- 77
2020-09-07 04:00:00 21.8 9 Nordeste 21 Nordeste 0 -- -- 79
2020-09-07 03:00:00 22.4 13 Nordeste 27 Nordeste 0 -- -- 76
2020-09-07 02:00:00 22.9 19 Nordeste 27 Nordeste 0 -- -- 76
2020-09-07 01:00:00 23.1 11 Nordeste 36 Nordeste 0 -- -- 74
2020-09-07 00:00:00 24.5 11 Nordeste 29 Nordeste 0 -- -- 65
2020-09-06 23:00:00 24.6 8 Oeste 19 Sur 0 -- -- 59
2020-09-06 22:00:00 24.9 8 Este 44 Este 0 -- -- 56
2020-09-06 21:00:00 25.2 22 Este 39 Este 0 -- -- 56
2020-09-06 20:00:00 26.7 26 Este 41 Este 0 -- -- 50
2020-09-06 19:00:00 28.9 22 Este 48 Este 0 -- -- 44
2020-09-06 18:00:00 29.4 30 Este 50 Este 0 -- -- 44
2020-09-06 17:00:00 30.2 26 Este 50 Este 0 -- -- 40
2020-09-06 16:00:00 30.2 27 Este 49 Este 0 -- -- 45
2020-09-06 15:00:00 29.8 32 Este 48 Este 0 -- -- 44
2020-09-06 14:00:00 29.6 28 Este 57 Este 0 -- -- 45
2020-09-06 13:00:00 28.7 29 Este 52 Sudeste 0 -- -- 47
2020-09-06 12:00:00 28 26 Este 56 Este 0 -- -- 49
2020-09-06 11:00:00 26.5 25 Este 51 Sudeste 0 -- -- 56
2020-09-06 10:00:00 25.4 22 Este 50 Este 0 -- -- 57
2020-09-06 09:00:00 23.6 10 Nordeste 50 Este 0 -- -- 64
2020-09-06 08:00:00 22.8 22 Este 51 Este 0 -- -- 69
2020-09-06 07:00:00 22.7 14 Nordeste 36 Este 0 -- -- 69
2020-09-06 06:00:00 22.6 8 Norte 35 Este 0 -- -- 69
2020-09-06 05:00:00 22.9 27 Este 56 Este 0 -- -- 69
2020-09-06 04:00:00 23.2 13 Este 45 Este 0 -- -- 66
2020-09-06 03:00:00 23.7 27 Este 68 Este 0 -- -- 59
2020-09-06 02:00:00 23.6 36 Este 71 Este 0 -- -- 63
2020-09-06 01:00:00 24.4 26 Este 74 Este 0 -- -- 59
2020-09-06 00:00:00 25.2 33 Este 86 Este 0 -- -- 51
2020-09-05 23:00:00 25.1 29 Este 64 Este 0 -- -- 52
2020-09-05 22:00:00 24.2 26 Nordeste 53 Este 0 -- -- 58
2020-09-05 21:00:00 25 22 Este 50 Este 0 -- -- 52
2020-09-05 20:00:00 26.9 28 Este 50 Este 0 -- -- 44
2020-09-05 19:00:00 28.8 30 Este 44 Este 0 -- -- 40
2020-09-05 18:00:00 29.7 31 Este 51 Este 0 -- -- 39
2020-09-05 17:00:00 30.2 29 Este 52 Este 0 -- -- 40
2020-09-05 16:00:00 30.8 28 Este 48 Sudeste 0 -- -- 40
2020-09-05 15:00:00 30.2 27 Este 48 Este 0 -- -- 46
2020-09-05 14:00:00 29.4 27 Este 46 Este 0 -- -- 49
2020-09-05 13:00:00 28.7 31 Este 53 Este 0 -- -- 54
2020-09-05 12:00:00 27.7 30 Este 55 Sudeste 0 -- -- 58
2020-09-05 11:00:00 26.5 23 Este 49 Sudeste 0 -- -- 63
2020-09-05 10:00:00 25.1 20 Sudeste 37 Sudeste 0 -- -- 70
2020-09-05 09:00:00 23.4 15 Sudeste 33 Sudeste 0 -- -- 76
2020-09-05 08:00:00 22.9 22 Sudeste 50 Sudeste 0 -- -- 77
2020-09-05 07:00:00 23.4 26 Este 59 Este 0 -- -- 71
2020-09-05 06:00:00 23.2 29 Este 76 Sudeste 0 -- -- 75
2020-09-05 05:00:00 23.4 37 Este 70 Este 0 -- -- 74
2020-09-05 04:00:00 23.3 42 Este 62 Este 0 -- -- 74
2020-09-05 03:00:00 23.5 28 Este 76 Este 0 -- -- 74
2020-09-05 02:00:00 23.5 35 Este 66 Este 0 -- -- 74
2020-09-05 01:00:00 23.7 27 Este 70 Este 0 -- -- 72
2020-09-05 00:00:00 23.6 34 Este 67 Este 0 -- -- 75
2020-09-04 23:00:00 23.7 33 Este 61 Este 0 -- -- 75
2020-09-04 22:00:00 24 37 Este 66 Este 0 -- -- 73
2020-09-04 21:00:00 24.4 36 Este 67 Este 0 -- -- 72
2020-09-04 20:00:00 25.7 34 Este 61 Sudeste 0 -- -- 64
2020-09-04 19:00:00 27.4 37 Este 59 Este 0 -- -- 56
2020-09-04 18:00:00 28.4 37 Este 59 Este 0 -- -- 54
2020-09-04 17:00:00 29 37 Este 63 Este 0 -- -- 52
2020-09-04 16:00:00 28.8 38 Este 64 Este 0 -- -- 53
2020-09-04 15:00:00 29 42 Este 67 Sudeste 0 -- -- 51
2020-09-04 14:00:00 28.6 44 Este 80 Este 0 -- -- 51
2020-09-04 13:00:00 28.2 42 Este 75 Sudeste 0 -- -- 55
2020-09-04 12:00:00 27 35 Este 62 Sudeste 0 -- -- 61
2020-09-04 11:00:00 26.1 30 Sudeste 63 Sudeste 0 -- -- 65
2020-09-04 10:00:00 24.7 42 Sudeste 76 Sudeste 0 -- -- 70
2020-09-04 09:00:00 23.5 42 Sudeste 72 Sudeste 0 -- -- 75
2020-09-04 08:00:00 23 42 Sudeste 72 Este 0 -- -- 76
2020-09-04 07:00:00 23 41 Sudeste 72 Sudeste 0 -- -- 76
2020-09-04 06:00:00 23.2 44 Este 69 Este 0 -- -- 75
2020-09-04 05:00:00 23.2 41 Sudeste 77 Sudeste 0 -- -- 75
2020-09-04 04:00:00 23.3 48 Sudeste 78 Este 0 -- -- 76
2020-09-04 03:00:00 23.3 48 Sudeste 81 Este 0 -- -- 74
2020-09-04 02:00:00 23.4 39 Sudeste 73 Sudeste 0 -- -- 74
2020-09-04 01:00:00 23.4 36 Este 61 Este 0 -- -- 76
2020-09-04 00:00:00 23.5 38 Este 66 Sudeste 0 -- -- 74
2020-09-03 23:00:00 23.6 31 Este 65 Este 0 -- -- 74
2020-09-03 22:00:00 23.7 28 Este 50 Sudeste 0 -- -- 71
2020-09-03 21:00:00 24.1 27 Este 50 Este 0 -- -- 70
2020-09-03 20:00:00 25.7 23 Este 53 Este 0 -- -- 63
2020-09-03 19:00:00 26.8 37 Este 66 Este 0 -- -- 57
2020-09-03 18:00:00 27.6 43 Este 63 Este 0 -- -- 57
2020-09-03 17:00:00 28.3 45 Este 71 Este 0 -- -- 50
2020-09-03 16:00:00 28.6 46 Este 72 Este 0 -- -- 53
2020-09-03 15:00:00 28.5 43 Este 70 Este 0 -- -- 52
2020-09-03 14:00:00 27.8 49 Este 73 Este 0 -- -- 55
2020-09-03 13:00:00 27.7 42 Este 81 Este 0 -- -- 57
2020-09-03 12:00:00 26.8 50 Este 75 Este 0 -- -- 59
2020-09-03 11:00:00 26 40 Este 63 Sudeste 0 -- -- 61
2020-09-03 10:00:00 24.8 34 Este 58 Sudeste 0 -- -- 67
2020-09-03 09:00:00 23.5 22 Este 41 Este 0 -- -- 72
2020-09-03 08:00:00 22.7 9 Este 28 Este 0 -- -- 74
2020-09-03 07:00:00 22.7 8 Nordeste 40 Este 0 -- -- 73
2020-09-03 06:00:00 22.5 20 Nordeste 36 Este 0 -- -- 75
2020-09-03 05:00:00 22.4 6 Nordeste 36 Este 0 -- -- 76
2020-09-03 04:00:00 22.5 5 Noroeste 23 Norte 0 -- -- 76
2020-09-03 03:00:00 22.5 9 Nordeste 24 Este 0 -- -- 78
2020-09-03 02:00:00 22.7 11 Nordeste 34 Este 0 -- -- 74
2020-09-03 01:00:00 22.5 7 Norte 25 Nordeste 0 -- -- 71
2020-09-03 00:00:00 22.8 18 Nordeste 35 Nordeste 0 -- -- 65
2020-09-02 23:00:00 23.1 10 Este 32 Este 0 -- -- 60
2020-09-02 22:00:00 23.5 13 Nordeste 33 Este 0 -- -- 60
2020-09-02 21:00:00 24.6 17 Este 33 Este 0 -- -- 51
2020-09-02 20:00:00 26.4 17 Este 36 Este 0 -- -- 53
2020-09-02 19:00:00 27.9 21 Este 44 Este 0 -- -- 43
2020-09-02 18:00:00 29 27 Este 48 Este 0 -- -- 39
2020-09-02 17:00:00 30.5 27 Este 41 Este 0 -- -- 31
2020-09-02 16:00:00 27.2 19 Sudeste 41 Sur 0 -- -- 45
2020-09-02 15:00:00 26.3 27 Sudeste 35 Sudeste 0 -- -- 65
2020-09-02 14:00:00 24.8 25 Sur 33 Sur 0 -- -- 70
2020-09-02 13:00:00 24.2 27 Sur 33 Sur 0 -- -- 75
2020-09-02 12:00:00 23.6 22 Sur 28 Sur 0 -- -- 81
2020-09-02 11:00:00 21.4 18 Sudoeste 22 Sudoeste 0 -- -- 91
2020-09-02 10:00:00 20.3 15 Sudoeste 18 Sudoeste 0 -- -- 95
2020-09-02 09:00:00 17.3 0 Calma 7 Este 0 -- -- 91
2020-09-02 08:00:00 16.3 2 Noroeste 9 Norte 0 -- -- 93
2020-09-02 07:00:00 16.2 6 Nordeste 8 Norte 0 -- -- 92
2020-09-02 06:00:00 16.6 5 Nordeste 9 Nordeste 0 -- -- 92
2020-09-02 05:00:00 17.3 5 Norte 10 Norte 0 -- -- 89
2020-09-02 04:00:00 17.7 5 Norte 10 Norte 0 -- -- 88
2020-09-02 03:00:00 17.9 7 Nordeste 8 Nordeste 0 -- -- 88
2020-09-02 02:00:00 19.4 5 Norte 8 Nordeste 0 -- -- 79
2020-09-02 01:00:00 19.8 5 Nordeste 7 Norte 0 -- -- 79
2020-09-02 00:00:00 20.3 5 Nordeste 8 Norte 0 -- -- 76
2020-09-01 23:00:00 20.9 5 Norte 9 Norte 0 -- -- 72
2020-09-01 22:00:00 22.4 6 Oeste 10 Oeste 0 -- -- 74
2020-09-01 21:00:00 22.9 7 Oeste 19 Oeste 0 -- -- 77
2020-09-01 20:00:00 23.3 17 Oeste 22 Oeste 0 -- -- 78
2020-09-01 19:00:00 23.1 19 Sur 30 Sur 0 -- -- 80
2020-09-01 18:00:00 24.4 27 Sur 32 Sur 0 -- -- 75
2020-09-01 17:00:00 24.3 27 Sur 37 Sur 0 -- -- 76
2020-09-01 16:00:00 24.6 25 Sur 31 Sur 0 -- -- 73
2020-09-01 15:00:00 25.2 21 Sur 27 Sur 0 -- -- 69
2020-09-01 14:00:00 25.2 16 Sur 20 Sur 0 -- -- 69
2020-09-01 13:00:00 24.9 10 Sur 15 Sur 0 -- -- 69
2020-09-01 12:00:00 24.7 10 Oeste 31 Este 0 -- -- 69
2020-09-01 11:00:00 25.8 15 Este 31 Este 0 -- -- 57
2020-09-01 10:00:00 24.3 17 Nordeste 30 Este 0 -- -- 66
2020-09-01 09:00:00 22.3 10 Nordeste 22 Nordeste 0 -- -- 75
2020-09-01 08:00:00 22 9 Norte 31 Nordeste 0 -- -- 77
2020-09-01 07:00:00 22 15 Nordeste 32 Norte 0 -- -- 76
2020-09-01 06:00:00 22.7 12 Norte 28 Norte 0 -- -- 70
2020-09-01 05:00:00 22.7 13 Norte 31 Norte 0 -- -- 66
2020-09-01 04:00:00 22.8 10 Noroeste 28 Noroeste 0 -- -- 59
2020-09-01 03:00:00 22.7 12 Este 44 Este 0 -- -- 66
2020-09-01 02:00:00 22.3 21 Este 31 Este 0 -- -- 69
2020-09-01 01:00:00 22.1 9 Nordeste 22 Nordeste 0 -- -- 69
2020-09-01 00:00:00 22.5 11 Nordeste 36 Este 0 -- -- 67
2020-08-31 23:00:00 23 19 Este 36 Este 0 -- -- 63
2020-08-31 22:00:00 23.5 18 Este 35 Nordeste 0 -- -- 58
2020-08-31 21:00:00 24.3 25 Este 50 Este 0 -- -- 54
2020-08-31 20:00:00 26.1 30 Este 51 Este 0 -- -- 57
2020-08-31 19:00:00 27.5 28 Este 56 Este 0 -- -- 53
2020-08-31 18:00:00 27.9 31 Este 58 Este 0 -- -- 55
2020-08-31 17:00:00 28.1 40 Este 63 Este 0 -- -- 52
2020-08-31 16:00:00 28.3 40 Este 62 Este 0 -- -- 51
2020-08-31 15:00:00 28.4 39 Este 63 Este 0 -- -- 51
2020-08-31 14:00:00 28.2 40 Este 59 Este 0 -- -- 53
2020-08-31 13:00:00 27.7 37 Este 58 Este 0 -- -- 56
2020-08-31 12:00:00 26.7 39 Este 62 Este 0 -- -- 58
2020-08-31 11:00:00 25.8 37 Este 66 Este 0 -- -- 62
2020-08-31 10:00:00 24.7 31 Este 51 Este 0 -- -- 66
2020-08-31 09:00:00 23 26 Este 46 Este 0 -- -- 73
2020-08-31 08:00:00 22 9 Nordeste 26 Nordeste 0 -- -- 79
2020-08-31 07:00:00 22.1 8 Norte 23 Norte 0 -- -- 76
2020-08-31 06:00:00 21.7 4 Norte 18 Norte 0 -- -- 78
2020-08-31 05:00:00 21.6 7 Norte 19 Norte 0 -- -- 79
2020-08-31 04:00:00 21.7 6 Norte 20 Noroeste 0 -- -- 79
2020-08-31 03:00:00 21.6 6 Norte 23 Nordeste 0 -- -- 79
2020-08-31 02:00:00 22 16 Este 22 Nordeste 0 -- -- 80
2020-08-31 01:00:00 22.4 12 Nordeste 27 Nordeste 0 -- -- 76
2020-08-31 00:00:00 22.9 12 Norte 24 Norte 0 -- -- 73
2020-08-30 23:00:00 23.1 9 Norte 24 Nordeste 0 -- -- 74
2020-08-30 22:00:00 23.7 8 Nordeste 27 Este 0 -- -- 72
2020-08-30 21:00:00 24.7 16 Este 37 Este 0 -- -- 66
2020-08-30 20:00:00 27 25 Este 41 Este 0 -- -- 54
2020-08-30 19:00:00 28.3 27 Este 43 Sudeste 0 -- -- 47
2020-08-30 18:00:00 29.6 25 Este 41 Este 0 -- -- 38
2020-08-30 17:00:00 30.1 27 Este 43 Sudeste 0 -- -- 38
2020-08-30 16:00:00 30.6 26 Este 42 Sudeste 0 -- -- 36
2020-08-30 15:00:00 30.2 26 Este 42 Este 0 -- -- 33
2020-08-30 14:00:00 29.3 28 Este 44 Este 0 -- -- 38
2020-08-30 13:00:00 27.9 31 Este 42 Este 0 -- -- 42
2020-08-30 12:00:00 25.8 14 Nordeste 36 Nordeste 0 -- -- 45
2020-08-30 11:00:00 21.6 6 Nordeste 15 Norte 0 -- -- 62
2020-08-30 10:00:00 17.2 9 Nordeste 16 Norte 0 -- -- 82
2020-08-30 09:00:00 15.5 11 Norte 17 Nordeste 0 -- -- 89
2020-08-30 08:00:00 15.1 7 Norte 21 Nordeste 0 -- -- 90
2020-08-30 07:00:00 15.6 9 Norte 14 Norte 0 -- -- 89
2020-08-30 06:00:00 15.7 4 Nordeste 10 Norte 0 -- -- 91
2020-08-30 05:00:00 16.6 6 Norte 10 Noroeste 0 -- -- 91
2020-08-30 04:00:00 16.9 5 Norte 9 Norte 0 -- -- 91
2020-08-30 03:00:00 17.4 6 Norte 10 Norte 0 -- -- 90
2020-08-30 02:00:00 18.3 5 Norte 9 Sudeste 0 -- -- 89
2020-08-30 01:00:00 20 7 Sudeste 13 Sudeste 0 -- -- 87
2020-08-30 00:00:00 21 12 Sur 19 Sur 0 -- -- 88
2020-08-29 23:00:00 21.2 13 Sur 21 Sur 0 -- -- 83
2020-08-29 22:00:00 21.6 11 Sur 24 Sudeste 0 -- -- 74
2020-08-29 21:00:00 22.4 5 Este 32 Oeste 0 -- -- 58
2020-08-29 20:00:00 24.1 23 Oeste 37 Noroeste 0 -- -- 51
2020-08-29 19:00:00 25.8 18 Noroeste 39 Noroeste 0 -- -- 42
2020-08-29 18:00:00 26.2 24 Noroeste 39 Noroeste 0 -- -- 36
2020-08-29 17:00:00 25.8 21 Oeste 32 Oeste 0 -- -- 40
2020-08-29 16:00:00 26.1 18 Noroeste 32 Noroeste 0 -- -- 31
2020-08-29 15:00:00 24.3 20 Oeste 38 Oeste 0 -- -- 50
2020-08-29 14:00:00 22.2 31 Oeste 37 Oeste 0 -- -- 63
2020-08-29 13:00:00 21.8 32 Oeste 37 Oeste 0 -- -- 68
2020-08-29 12:00:00 22.9 10 Noroeste 26 Oeste 0 -- -- 50
2020-08-29 11:00:00 21.7 8 Norte 19 Norte 0 -- -- 52
2020-08-29 10:00:00 19.6 10 Norte 19 Norte 0 -- -- 60
2020-08-29 09:00:00 17.9 5 Norte 12 Norte 0 -- -- 73
2020-08-29 08:00:00 17.6 0 Calma 7 Noroeste 0 -- -- 73
2020-08-29 07:00:00 18.6 6 Norte 19 Noroeste 0 -- -- 69
2020-08-29 06:00:00 19.1 5 Nordeste 30 Noroeste 0 -- -- 68
2020-08-29 05:00:00 19.9 17 Noroeste 28 Norte 0 -- -- 65
2020-08-29 04:00:00 20.7 10 Norte 22 Norte 0 -- -- 65
2020-08-29 03:00:00 21.1 5 Oeste 14 Oeste 0 -- -- 77
2020-08-29 02:00:00 22 12 Sudoeste 18 Sudoeste 0 -- -- 86
2020-08-29 01:00:00 22 12 Sudoeste 17 Sudoeste 0 -- -- 92
2020-08-29 00:00:00 22.1 13 Sudoeste 18 Sudoeste 0 -- -- 93
2020-08-28 23:00:00 22.3 14 Sudoeste 20 Sur 0 -- -- 94
2020-08-28 22:00:00 22.6 15 Sur 20 Sudoeste 0 -- -- 93
2020-08-28 21:00:00 23 17 Sudoeste 21 Sur 0 -- -- 89
2020-08-28 20:00:00 24.2 15 Sudoeste 21 Sudoeste 0 -- -- 84
2020-08-28 19:00:00 24.7 17 Sudoeste 23 Oeste 0 -- -- 79
2020-08-28 18:00:00 24.4 19 Sudoeste 26 Oeste 0 -- -- 82
2020-08-28 17:00:00 24.8 19 Sudoeste 28 Sudoeste 0 -- -- 77
2020-08-28 16:00:00 24.2 25 Sudoeste 30 Sudoeste 0 -- -- 77
2020-08-28 15:00:00 23.8 24 Sudoeste 33 Oeste 0 -- -- 77
2020-08-28 14:00:00 23.4 26 Oeste 38 Oeste 0 -- -- 76
2020-08-28 13:00:00 23.5 21 Oeste 33 Oeste 0 -- -- 75
2020-08-28 12:00:00 22.6 23 Oeste 32 Oeste 0 -- -- 81
2020-08-28 11:00:00 22.6 23 Oeste 28 Sudoeste 0 -- -- 82
2020-08-28 10:00:00 22.2 12 Oeste 15 Oeste 0 -- -- 87
2020-08-28 09:00:00 21.4 8 Oeste 10 Oeste 0 -- -- 91
2020-08-28 08:00:00 21.1 4 Oeste 11 Norte 0 -- -- 92
2020-08-28 07:00:00 21.6 0 Calma 5 Sur 0 -- -- 97
2020-08-28 06:00:00 22 5 Sudoeste 9 Sur 0 -- -- 95
2020-08-28 05:00:00 22.2 8 Sudoeste 13 Sudoeste 0 -- -- 96
2020-08-28 04:00:00 22.3 12 Sudoeste 16 Sudoeste 0 -- -- 95
2020-08-28 03:00:00 22.5 14 Sudoeste 20 Sur 0 -- -- 94
2020-08-28 02:00:00 22.9 14 Sur 15 Sudoeste 0 -- -- 92
2020-08-28 01:00:00 23.1 11 Sur 13 Sur 0 -- -- 91
2020-08-28 00:00:00 24.5 4 Sudoeste 7 Noroeste 0 -- -- 75
2020-08-27 23:00:00 25.4 3 Noroeste 15 Noroeste 0 -- -- 65
2020-08-27 22:00:00 26.2 7 Norte 14 Norte 0 -- -- 59
2020-08-27 21:00:00 26.5 4 Este 13 Sudeste 0 -- -- 66
2020-08-27 20:00:00 28.9 6 Sudeste 22 Oeste 0 -- -- 61
2020-08-27 19:00:00 26.6 18 Oeste 26 Sudoeste 0 -- -- 72
2020-08-27 18:00:00 26.5 19 Oeste 29 Oeste 0 -- -- 74
2020-08-27 17:00:00 26.5 24 Oeste 33 Oeste 0 -- -- 78
2020-08-27 16:00:00 26.2 24 Sudoeste 30 Sudoeste 0 -- -- 82
2020-08-27 15:00:00 26.4 19 Sudoeste 21 Sudoeste 0 -- -- 73
2020-08-27 14:00:00 25.6 18 Sudoeste 21 Sudoeste 0 -- -- 79
2020-08-27 13:00:00 25.3 14 Sudoeste 21 Sudoeste 0 -- -- 81
2020-08-27 12:00:00 24.8 17 Oeste 19 Oeste 0 -- -- 81
2020-08-27 11:00:00 25.3 9 Sudoeste 11 Oeste 0 -- -- 75
2020-08-27 10:00:00 24.3 0 Calma 3 Sudeste 0 -- -- 73
2020-08-27 09:00:00 21.8 4 Este 13 Norte 0 -- -- 85
2020-08-27 08:00:00 20.9 8 Norte 14 Norte 0 -- -- 87
2020-08-27 07:00:00 20.7 5 Norte 10 Norte 0 -- -- 88
2020-08-27 06:00:00 21.1 5 Norte 9 Noroeste 0 -- -- 87
2020-08-27 05:00:00 21.4 4 Nordeste 9 Norte 0 -- -- 84
2020-08-27 04:00:00 22 7 Norte 12 Norte 0 -- -- 83
2020-08-27 03:00:00 22.2 6 Norte 9 Norte 0 -- -- 86
2020-08-27 02:00:00 22.4 3 Norte 12 Oeste 0 -- -- 85
2020-08-27 01:00:00 23.4 11 Oeste 15 Oeste 0 -- -- 87
2020-08-27 00:00:00 23 3 Sudoeste 7 Sur 0 -- -- 92
2020-08-26 23:00:00 23.2 7 Sur 9 Sur 0 -- -- 92
2020-08-26 22:00:00 23.9 8 Sur 10 Sur 0 -- -- 90
2020-08-26 21:00:00 24.7 9 Sudeste 13 Sudoeste 0 -- -- 86
2020-08-26 20:00:00 25.3 12 Sudoeste 17 Sudoeste 0 -- -- 83
2020-08-26 19:00:00 27.3 8 Sudoeste 13 Oeste 0 -- -- 74
2020-08-26 18:00:00 26.8 13 Sudoeste 19 Sudoeste 0 -- -- 75
2020-08-26 17:00:00 27.3 15 Oeste 21 Oeste 0 -- -- 75
2020-08-26 16:00:00 27.9 14 Sur 24 Sur 0 -- -- 74
2020-08-26 15:00:00 27.4 15 Sur 23 Sur 0 -- -- 76
2020-08-26 14:00:00 27.3 12 Sur 20 Sur 0 -- -- 76
2020-08-26 13:00:00 26.7 11 Sur 21 Sur 0 -- -- 78
2020-08-26 12:00:00 26.1 9 Sudoeste 12 Oeste 0 -- -- 77
2020-08-26 11:00:00 25.6 7 Oeste 8 Oeste 0 -- -- 75
2020-08-26 10:00:00 24.1 0 Calma 6 Sudeste 0 -- -- 84
2020-08-26 09:00:00 21.4 5 Nordeste 14 Norte 0 -- -- 91
2020-08-26 08:00:00 19.9 8 Norte 12 Noroeste 0 -- -- 94
2020-08-26 07:00:00 20 3 Norte 10 Sudeste 0 -- -- 92
2020-08-26 06:00:00 20.2 5 Norte 10 Norte 0 -- -- 90
2020-08-26 05:00:00 20.4 6 Norte 10 Noroeste 0 -- -- 91
2020-08-26 04:00:00 21.2 0 Calma 8 Oeste 0 -- -- 90
2020-08-26 03:00:00 21.2 5 Norte 8 Norte 0 -- -- 86
2020-08-26 02:00:00 22.1 0 Calma 8 Norte 0 -- -- 84
2020-08-26 01:00:00 22.9 0 Calma 5 Nordeste 0 -- -- 82
2020-08-26 00:00:00 23.8 4 Oeste 16 Oeste 0 -- -- 82